Time;durP1;ratioP1;P1;durP2;ratioP2;P2;SDS_P1;SDS_P2;PMS_P1;PMS_P2;Temp;Humidity;BMP_temperature;BMP_pressure;BME280_temperature;BME280_humidity;BME280_pressure;Samples;Min_cycle;Max_cycle;Signal;HPM_P1;HPM_P2
2023/04/21 00:01:35;;;;;;;4.75;2.67;;;11.60;40.80;;;;;;5015941;28;20037;-87
2023/04/21 00:04:01;;;;;;;7.22;3.95;;;11.50;40.70;;;;;;4990913;28;20053;-86
2023/04/21 00:06:30;;;;;;;7.28;3.70;;;11.50;40.70;;;;;;4994714;28;20543;-87
2023/04/21 00:08:55;;;;;;;8.00;3.75;;;11.50;40.90;;;;;;5003014;28;20103;-86
2023/04/21 00:11:21;;;;;;;9.85;4.63;;;11.50;41.00;;;;;;5003601;28;20030;-88
2023/04/21 00:13:47;;;;;;;6.55;3.90;;;11.40;41.00;;;;;;5017554;28;20041;-87
2023/04/21 00:16:13;;;;;;;7.50;3.55;;;11.30;41.00;;;;;;5012248;28;20504;-87
2023/04/21 00:18:39;;;;;;;5.80;3.53;;;11.30;41.10;;;;;;4992902;28;20034;-86
2023/04/21 00:21:05;;;;;;;6.18;3.72;;;11.30;41.20;;;;;;5009768;28;20382;-87
2023/04/21 00:23:31;;;;;;;9.93;3.88;;;11.20;41.20;;;;;;4978524;28;20452;-87
2023/04/21 00:25:58;;;;;;;10.00;4.85;;;11.20;41.30;;;;;;5012295;28;20033;-88
2023/04/21 00:28:24;;;;;;;4.38;3.47;;;11.20;41.40;;;;;;5006860;28;20036;-87
2023/04/21 00:30:50;;;;;;;4.80;3.28;;;11.20;41.60;;;;;;5006523;28;20046;-88
2023/04/21 00:33:16;;;;;;;7.03;4.35;;;11.20;41.60;;;;;;4992366;28;20034;-89
2023/04/21 00:35:41;;;;;;;7.22;4.43;;;11.10;41.50;;;;;;4995845;28;20066;-86
2023/04/21 00:38:07;;;;;;;9.30;4.00;;;11.10;41.70;;;;;;5015083;28;20029;-86
2023/04/21 00:40:35;;;;;;;7.85;3.55;;;11.10;41.80;;;;;;5002244;28;20053;-86
2023/04/21 00:43:05;;;;;;;8.13;3.80;;;11.10;41.90;;;;;;4997766;28;20038;-87
2023/04/21 00:45:30;;;;;;;8.07;3.78;;;11.00;41.80;;;;;;4986990;28;20291;-85
2023/04/21 00:47:56;;;;;;;7.32;3.65;;;11.00;41.80;;;;;;5020877;28;20343;-85
2023/04/21 00:50:22;;;;;;;5.72;3.25;;;11.00;41.90;;;;;;5004104;28;20071;-85
2023/04/21 00:52:48;;;;;;;5.20;3.42;;;11.00;42.10;;;;;;5016224;28;20108;-87
2023/04/21 00:55:15;;;;;;;7.47;4.18;;;11.00;42.20;;;;;;5004723;28;20040;-87
2023/04/21 00:57:43;;;;;;;7.57;4.32;;;10.90;42.10;;;;;;5017148;28;20014;-87
2023/04/21 01:00:09;;;;;;;7.07;3.72;;;10.90;42.30;;;;;;5035819;28;20040;-87
2023/04/21 01:02:38;;;;;;;7.82;4.35;;;10.90;42.40;;;;;;5031123;28;20091;-94
2023/04/21 01:05:08;;;;;;;7.72;3.90;;;10.90;42.50;;;;;;5023153;28;20033;-82
2023/04/21 01:07:35;;;;;;;5.95;3.88;;;10.80;42.40;;;;;;5033762;28;20002;-81
2023/04/21 01:10:03;;;;;;;8.90;4.88;;;10.80;42.50;;;;;;5020669;28;20055;-80
2023/04/21 01:12:29;;;;;;;10.75;4.25;;;10.80;42.70;;;;;;5033182;28;20038;-82
2023/04/21 01:14:58;;;;;;;7.57;3.97;;;10.70;42.60;;;;;;4997747;28;20041;-82
2023/04/21 01:17:24;;;;;;;8.88;4.07;;;10.70;42.70;;;;;;4997079;28;20041;-80
2023/04/21 01:19:52;;;;;;;9.85;5.30;;;10.70;42.80;;;;;;5013929;28;20092;-80
2023/04/21 01:22:18;;;;;;;8.32;4.47;;;10.70;42.90;;;;;;5017092;28;20461;-80
2023/04/21 01:24:48;;;;;;;9.80;4.57;;;10.60;42.90;;;;;;5014125;28;20073;-81
2023/04/21 01:27:20;;;;;;;14.13;5.95;;;10.60;43.60;;;;;;5020897;28;20276;-80
2023/04/21 01:29:48;;;;;;;7.78;5.15;;;10.60;43.10;;;;;;4991165;28;20030;-80
2023/04/21 01:32:23;;;;;;;7.88;5.32;;;10.50;42.90;;;;;;5001766;28;20049;-79
2023/04/21 01:34:52;;;;;;;8.60;5.63;;;10.50;43.00;;;;;;5007329;28;20500;-82
2023/04/21 01:37:22;;;;;;;9.50;5.38;;;10.40;42.90;;;;;;5000923;28;20041;-81
2023/04/21 01:39:53;;;;;;;9.02;5.10;;;10.40;43.40;;;;;;5007387;28;20121;-82
2023/04/21 01:42:21;;;;;;;8.70;5.47;;;10.40;43.00;;;;;;4997418;28;20125;-82
2023/04/21 01:44:48;;;;;;;7.60;5.30;;;10.40;43.10;;;;;;4988945;28;20037;-82
2023/04/21 01:47:16;;;;;;;12.20;6.05;;;10.30;42.90;;;;;;5002706;28;20523;-82
2023/04/21 01:49:42;;;;;;;10.05;5.88;;;10.30;42.90;;;;;;5016332;28;20046;-81
2023/04/21 01:52:08;;;;;;;7.93;5.95;;;10.30;43.00;;;;;;5024750;28;20033;-82
2023/04/21 01:54:34;;;;;;;8.48;5.35;;;10.30;43.10;;;;;;4997606;28;20029;-81
2023/04/21 01:57:01;;;;;;;12.15;5.88;;;10.20;43.00;;;;;;5008958;28;20033;-81
2023/04/21 01:59:27;;;;;;;8.25;5.40;;;10.10;42.90;;;;;;5011465;28;20692;-83
2023/04/21 02:01:53;;;;;;;9.38;5.50;;;10.10;43.00;;;;;;5021531;28;20057;-85
2023/04/21 02:04:19;;;;;;;8.93;5.47;;;10.10;43.10;;;;;;4993732;28;20026;-85
2023/04/21 02:06:45;;;;;;;11.18;6.25;;;10.00;43.00;;;;;;5006739;28;20041;-85
2023/04/21 02:09:11;;;;;;;8.68;5.88;;;10.00;43.10;;;;;;5004220;28;20041;-86
2023/04/21 02:11:37;;;;;;;10.90;6.10;;;10.00;43.20;;;;;;4992699;28;20139;-82
2023/04/21 02:14:03;;;;;;;7.43;6.50;;;10.00;43.20;;;;;;4994610;28;20026;-84
2023/04/21 02:16:30;;;;;;;11.50;6.15;;;10.00;43.30;;;;;;5027728;28;20040;-85
2023/04/21 02:18:56;;;;;;;10.93;6.07;;;9.90;43.20;;;;;;5009168;28;20034;-85
2023/04/21 02:21:23;;;;;;;10.38;6.25;;;9.90;43.30;;;;;;5025851;28;20579;-86
2023/04/21 02:23:50;;;;;;;8.45;6.03;;;9.80;43.20;;;;;;5010701;28;20033;-85
2023/04/21 02:26:16;;;;;;;8.82;5.80;;;9.80;43.30;;;;;;5008754;28;20049;-83
2023/04/21 02:28:41;;;;;;;11.40;6.15;;;9.80;43.40;;;;;;5026167;28;20315;-84
2023/04/21 02:31:07;;;;;;;10.48;7.22;;;9.80;43.50;;;;;;5009863;28;20037;-85
2023/04/21 02:33:33;;;;;;;7.85;5.47;;;9.70;43.40;;;;;;5009276;28;20029;-85
2023/04/21 02:35:59;;;;;;;9.57;6.60;;;9.70;43.50;;;;;;5026707;28;20068;-86
2023/04/21 02:38:25;;;;;;;9.60;6.32;;;9.70;44.10;;;;;;5009787;28;20461;-85
2023/04/21 02:40:51;;;;;;;9.48;6.10;;;9.70;43.50;;;;;;5021058;28;20120;-83
2023/04/21 02:43:18;;;;;;;13.85;6.68;;;9.70;43.60;;;;;;4986619;28;20034;-82
2023/04/21 02:45:44;;;;;;;10.07;6.30;;;9.70;43.60;;;;;;5015405;28;20088;-82
2023/04/21 02:48:11;;;;;;;10.70;6.15;;;9.70;43.70;;;;;;5007340;28;20079;-85
2023/04/21 02:50:38;;;;;;;13.48;6.70;;;9.70;43.70;;;;;;5009726;28;20073;-86
2023/04/21 02:53:05;;;;;;;9.25;6.88;;;9.70;43.70;;;;;;5004902;28;20037;-82
2023/04/21 02:55:31;;;;;;;13.13;6.85;;;9.60;43.60;;;;;;5009273;28;20040;-79
2023/04/21 02:57:56;;;;;;;12.73;6.90;;;9.70;43.90;;;;;;5018368;28;20338;-80
2023/04/21 03:00:24;;;;;;;12.00;7.15;;;9.70;43.90;;;;;;5005580;28;20096;-82
2023/04/21 03:02:52;;;;;;;10.85;7.05;;;9.70;44.00;;;;;;5026453;28;20056;-82
2023/04/21 03:05:18;;;;;;;8.07;6.55;;;9.70;44.00;;;;;;5026718;28;20029;-83
2023/04/21 03:07:44;;;;;;;12.23;7.80;;;9.70;44.10;;;;;;5008792;28;20030;-83
2023/04/21 03:10:11;;;;;;;10.95;6.97;;;9.70;44.20;;;;;;5009167;28;20187;-82
2023/04/21 03:12:36;;;;;;;9.80;6.93;;;9.70;44.20;;;;;;5006686;28;20120;-82
2023/04/21 03:15:03;;;;;;;9.90;7.10;;;9.70;44.20;;;;;;5005725;28;20076;-82
2023/04/21 03:17:29;;;;;;;13.02;7.47;;;9.70;44.20;;;;;;5027039;28;20117;-82
2023/04/21 03:19:55;;;;;;;12.68;7.45;;;9.70;44.30;;;;;;5026490;28;20112;-82
2023/04/21 03:22:21;;;;;;;11.30;7.30;;;9.70;44.40;;;;;;5008070;28;20091;-81
2023/04/21 03:24:47;;;;;;;15.40;7.88;;;9.70;44.50;;;;;;4992598;28;20036;-81
2023/04/21 03:27:13;;;;;;;11.50;8.02;;;9.70;44.60;;;;;;5008120;28;20041;-82
2023/04/21 03:29:39;;;;;;;9.52;7.57;;;9.60;44.40;;;;;;5005942;28;20488;-82
2023/04/21 03:32:05;;;;;;;11.73;8.32;;;9.60;44.60;;;;;;5026134;28;20095;-81
2023/04/21 03:34:31;;;;;;;14.52;8.07;;;9.60;44.60;;;;;;5008309;28;20095;-80
2023/04/21 03:36:59;;;;;;;11.55;8.00;;;9.60;44.70;;;;;;5005487;28;20038;-80
2023/04/21 03:39:25;;;;;;;13.23;9.88;;;9.60;44.80;;;;;;4993012;28;20034;-81
2023/04/21 03:41:52;;;;;;;9.20;6.90;;;9.60;44.80;;;;;;4986720;28;20034;-83
2023/04/21 03:44:18;;;;;;;8.85;6.63;;;9.60;44.90;;;;;;4994111;28;20551;-86
2023/04/21 03:46:44;;;;;;;10.75;7.32;;;9.60;44.90;;;;;;5017159;28;20030;-85
2023/04/21 03:49:10;;;;;;;13.30;8.23;;;9.60;45.00;;;;;;5006278;28;20053;-85
2023/04/21 03:51:35;;;;;;;10.95;7.22;;;9.60;45.00;;;;;;5024064;28;20488;-85
2023/04/21 03:54:01;;;;;;;10.88;6.70;;;9.60;45.10;;;;;;5014696;28;20045;-85
2023/04/21 03:56:27;;;;;;;10.90;7.47;;;9.60;45.10;;;;;;5008872;28;20022;-85
2023/04/21 03:58:53;;;;;;;9.77;7.57;;;9.60;45.20;;;;;;5018041;28;20369;-81
2023/04/21 04:01:19;;;;;;;10.93;7.45;;;9.60;45.30;;;;;;5020933;28;20053;-81
2023/04/21 04:03:45;;;;;;;11.00;6.70;;;9.60;45.30;;;;;;5026135;28;20554;-80
2023/04/21 04:06:11;;;;;;;12.43;8.45;;;9.60;45.50;;;;;;5023885;28;20466;-79
2023/04/21 04:08:37;;;;;;;11.15;8.52;;;9.60;45.60;;;;;;5025247;28;20382;-80
2023/04/21 04:11:03;;;;;;;11.52;8.05;;;9.50;45.50;;;;;;5022697;28;20049;-80
2023/04/21 04:13:29;;;;;;;13.02;8.48;;;9.50;45.70;;;;;;5023295;28;20033;-80
2023/04/21 04:15:55;;;;;;;14.93;8.65;;;9.50;45.80;;;;;;5006272;28;20616;-85
2023/04/21 04:18:21;;;;;;;15.15;8.63;;;9.50;45.90;;;;;;5025276;28;20072;-83
2023/04/21 04:20:47;;;;;;;15.82;8.32;;;9.50;46.00;;;;;;5025749;28;20033;-84
2023/04/21 04:23:12;;;;;;;9.98;7.20;;;9.50;46.30;;;;;;5024011;28;20542;-84
2023/04/21 04:25:38;;;;;;;10.60;7.88;;;9.50;46.40;;;;;;5022987;28;20047;-83
2023/04/21 04:28:06;;;;;;;12.98;8.48;;;9.50;46.50;;;;;;5023020;28;20029;-83
2023/04/21 04:30:34;;;;;;;14.05;7.28;;;9.40;46.40;;;;;;5019470;28;20735;-83
2023/04/21 04:33:00;;;;;;;10.13;7.43;;;9.40;46.60;;;;;;5025919;28;20040;-84
2023/04/21 04:35:26;;;;;;;13.93;8.05;;;9.40;46.60;;;;;;5025551;28;20088;-84
2023/04/21 04:37:53;;;;;;;10.43;7.93;;;9.40;46.70;;;;;;5017751;28;20109;-83
2023/04/21 04:40:19;;;;;;;14.52;8.38;;;9.30;46.60;;;;;;5016340;28;20056;-83
2023/04/21 04:42:45;;;;;;;11.77;8.30;;;9.30;46.70;;;;;;5022505;28;20052;-84
2023/04/21 04:45:12;;;;;;;12.32;8.35;;;9.30;46.80;;;;;;5011883;28;20048;-80
2023/04/21 04:47:38;;;;;;;10.75;8.50;;;9.30;47.00;;;;;;5005648;28;20033;-83
2023/04/21 04:50:05;;;;;;;10.73;8.35;;;9.20;46.90;;;;;;5016413;28;20072;-90
2023/04/21 04:52:31;;;;;;;14.88;7.90;;;9.20;47.10;;;;;;5003770;28;20421;-84
2023/04/21 04:54:57;;;;;;;13.27;8.30;;;9.20;47.10;;;;;;4998934;28;20057;-83
2023/04/21 04:57:23;;;;;;;11.13;8.00;;;9.20;47.30;;;;;;4998073;28;20118;-87
2023/04/21 04:59:56;;;;;;;15.68;9.10;;;9.10;47.20;;;;;;5018037;28;20037;-85
2023/04/21 05:02:22;;;;;;;12.80;8.73;;;9.10;47.40;;;;;;5007392;28;20037;-87
2023/04/21 05:04:50;;;;;;;12.77;8.02;;;9.10;47.40;;;;;;4992383;28;20696;-84
2023/04/21 05:07:16;;;;;;;12.15;8.88;;;9.10;47.50;;;;;;4991500;28;20422;-85
2023/04/21 05:09:41;;;;;;;14.93;9.27;;;9.10;47.60;;;;;;4984266;28;20103;-85
2023/04/21 05:12:07;;;;;;;13.13;8.95;;;9.00;47.60;;;;;;5006166;28;20034;-85
2023/04/21 05:14:33;;;;;;;15.75;11.00;;;9.00;47.70;;;;;;5003266;28;20490;-86
2023/04/21 05:16:59;;;;;;;17.15;9.77;;;9.10;48.00;;;;;;5019177;28;20072;-86
2023/04/21 05:19:25;;;;;;;15.27;9.18;;;9.10;48.00;;;;;;5022398;28;20041;-85
2023/04/21 05:21:52;;;;;;;12.73;9.55;;;9.00;47.90;;;;;;5026575;28;20033;-88
2023/04/21 05:24:22;;;;;;;14.80;8.73;;;9.10;48.10;;;;;;5005752;28;20025;-89
2023/04/21 05:26:48;;;;;;;13.77;9.10;;;9.10;48.20;;;;;;5007920;28;20510;-91
2023/04/21 05:29:14;;;;;;;12.45;10.07;;;9.10;48.20;;;;;;5014540;28;20025;-88
2023/04/21 05:31:40;;;;;;;17.92;10.52;;;9.10;48.20;;;;;;5007301;28;20445;-88
2023/04/21 05:34:06;;;;;;;13.63;10.02;;;9.10;48.90;;;;;;5008993;28;20342;-86
2023/04/21 05:36:32;;;;;;;15.40;9.85;;;9.10;48.40;;;;;;5022055;28;20029;-85
2023/04/21 05:38:57;;;;;;;16.38;9.85;;;9.10;48.40;;;;;;4998342;28;20476;-87
2023/04/21 05:41:23;;;;;;;14.40;9.73;;;9.10;48.40;;;;;;4997483;28;20444;-80
2023/04/21 05:43:49;;;;;;;14.35;9.02;;;9.10;48.40;;;;;;5022428;28;20117;-83
2023/04/21 05:46:15;;;;;;;14.52;8.80;;;9.10;48.50;;;;;;5007136;28;20398;-86
2023/04/21 05:48:41;;;;;;;16.58;9.88;;;9.10;48.50;;;;;;5004044;28;20069;-83
2023/04/21 05:51:11;;;;;;;15.02;8.98;;;9.10;48.50;;;;;;5014673;28;20025;-85
2023/04/21 05:53:39;;;;;;;13.60;8.70;;;9.10;48.60;;;;;;5003571;28;20052;-83
2023/04/21 05:56:07;;;;;;;13.23;8.90;;;9.20;48.80;;;;;;5016148;28;20091;-79
2023/04/21 05:58:33;;;;;;;12.65;7.88;;;9.20;48.90;;;;;;5001016;28;20069;-80
2023/04/21 06:00:59;;;;;;;12.30;7.95;;;9.20;49.10;;;;;;5016954;28;20103;-81
2023/04/21 06:03:25;;;;;;;15.05;7.43;;;9.30;50.10;;;;;;5014333;28;20508;-80
2023/04/21 06:05:54;;;;;;;10.13;7.60;;;9.50;50.90;;;;;;5015620;28;20033;-80
2023/04/21 06:08:21;;;;;;;12.88;7.20;;;9.70;51.60;;;;;;5014665;28;20030;-83
2023/04/21 06:10:47;;;;;;;13.07;9.20;;;9.90;51.80;;;;;;5005806;28;20033;-79
2023/04/21 06:13:13;;;;;;;12.13;8.45;;;10.10;51.90;;;;;;5001062;28;20101;-82
2023/04/21 06:15:39;;;;;;;9.25;7.55;;;10.30;51.80;;;;;;5018621;28;20067;-84
2023/04/21 06:18:05;;;;;;;11.73;7.72;;;10.50;52.20;;;;;;4996257;28;20573;-88
2023/04/21 06:20:30;;;;;;;11.07;7.95;;;10.70;52.50;;;;;;4990564;28;20177;-87
2023/04/21 06:22:56;;;;;;;10.13;7.85;;;10.80;52.40;;;;;;4997972;28;20034;-88
2023/04/21 06:25:22;;;;;;;11.18;7.72;;;10.90;52.30;;;;;;5006686;28;20049;-86
2023/04/21 06:27:48;;;;;;;12.63;7.85;;;11.00;52.20;;;;;;5005836;28;20059;-83
2023/04/21 06:30:14;;;;;;;12.20;7.68;;;11.00;52.00;;;;;;4994022;28;20041;-85
2023/04/21 06:32:40;;;;;;;14.75;9.70;;;11.00;51.90;;;;;;5028209;28;20042;-83
2023/04/21 06:35:06;;;;;;;11.63;8.65;;;11.00;51.70;;;;;;5037906;28;20061;-86
2023/04/21 06:37:32;;;;;;;12.43;7.97;;;11.10;51.80;;;;;;5037848;28;20014;-85
2023/04/21 06:39:58;;;;;;;13.82;8.63;;;11.10;51.60;;;;;;5011885;28;20076;-86
2023/04/21 06:42:24;;;;;;;12.80;8.77;;;11.10;51.50;;;;;;5017948;28;20094;-85
2023/04/21 06:44:50;;;;;;;17.60;8.98;;;11.10;51.40;;;;;;5017740;28;20034;-86
2023/04/21 06:47:16;;;;;;;11.65;8.20;;;11.20;51.40;;;;;;5028403;28;20085;-88
2023/04/21 06:49:42;;;;;;;11.20;8.98;;;11.30;51.50;;;;;;5015621;28;20386;-85
2023/04/21 06:52:07;;;;;;;12.32;8.45;;;11.30;51.30;;;;;;5006418;28;20190;-84
2023/04/21 06:54:33;;;;;;;9.43;8.18;;;11.30;51.10;;;;;;5019575;28;20033;-84
2023/04/21 06:56:59;;;;;;;9.98;8.35;;;11.40;51.10;;;;;;5014864;28;20579;-86
2023/04/21 06:59:25;;;;;;;12.77;9.07;;;11.50;51.10;;;;;;5009266;28;20334;-86
2023/04/21 07:01:51;;;;;;;15.60;8.63;;;11.60;51.10;;;;;;5007748;28;20146;-86
2023/04/21 07:04:18;;;;;;;10.57;9.00;;;11.60;50.90;;;;;;5008423;28;20126;-85
2023/04/21 07:06:44;;;;;;;11.55;8.43;;;11.70;51.00;;;;;;5011363;28;20030;-84
2023/04/21 07:09:10;;;;;;;14.23;9.13;;;11.80;51.10;;;;;;5017603;28;20540;-84
2023/04/21 07:11:36;;;;;;;12.38;8.93;;;12.00;51.30;;;;;;5003731;28;20085;-83
2023/04/21 07:14:02;;;;;;;13.70;9.30;;;12.40;51.60;;;;;;5001899;28;20500;-84
2023/04/21 07:16:28;;;;;;;10.10;8.55;;;12.80;51.40;;;;;;5002339;28;20316;-85
2023/04/21 07:18:54;;;;;;;10.75;8.82;;;13.10;50.90;;;;;;5003768;28;20064;-84
2023/04/21 07:21:20;;;;;;;14.38;9.68;;;13.20;50.40;;;;;;5017888;28;20442;-86
2023/04/21 07:23:46;;;;;;;12.20;9.05;;;13.30;50.30;;;;;;5017811;28;20037;-85
2023/04/21 07:26:12;;;;;;;14.32;9.13;;;13.40;50.40;;;;;;5012277;28;20045;-85
2023/04/21 07:28:39;;;;;;;11.35;8.60;;;13.50;50.20;;;;;;5016741;28;20132;-83
2023/04/21 07:31:05;;;;;;;12.02;10.13;;;13.50;50.50;;;;;;5016154;28;20095;-85
2023/04/21 07:33:32;;;;;;;9.43;8.40;;;13.50;49.80;;;;;;5015933;28;20540;-83
2023/04/21 07:35:58;;;;;;;14.07;9.38;;;13.50;49.80;;;;;;5015720;28;20048;-84
2023/04/21 07:38:24;;;;;;;15.52;9.57;;;13.40;49.70;;;;;;5007495;28;20482;-82
2023/04/21 07:40:50;;;;;;;12.98;9.05;;;13.40;49.70;;;;;;5005736;28;20033;-84
2023/04/21 07:43:17;;;;;;;12.80;9.82;;;13.50;49.80;;;;;;5011662;28;20033;-84
2023/04/21 07:45:44;;;;;;;12.57;9.68;;;13.50;49.70;;;;;;5018116;28;20037;-86
2023/04/21 07:48:09;;;;;;;11.02;8.18;;;13.60;49.80;;;;;;4994069;28;20049;-84
2023/04/21 07:50:35;;;;;;;11.43;8.75;;;13.60;49.90;;;;;;5016969;28;20492;-83
2023/04/21 07:53:01;;;;;;;11.60;8.45;;;13.70;50.20;;;;;;5016883;28;20037;-82
2023/04/21 07:55:28;;;;;;;8.52;7.68;;;13.80;50.50;;;;;;5008666;28;20975;-83
2023/04/21 07:57:54;;;;;;;14.60;8.18;;;14.00;50.80;;;;;;5017499;28;20025;-81
2023/04/21 08:00:23;;;;;;;11.00;7.82;;;14.10;50.80;;;;;;5008776;28;20072;-82
2023/04/21 08:02:49;;;;;;;9.68;6.88;;;14.30;51.00;;;;;;5015701;28;20057;-81
2023/04/21 08:05:15;;;;;;;8.60;7.45;;;14.60;51.30;;;;;;5014425;28;20048;-82
2023/04/21 08:07:41;;;;;;;12.63;8.27;;;14.80;51.30;;;;;;4997632;28;20056;-85
2023/04/21 08:10:07;;;;;;;12.50;9.15;;;15.00;51.20;;;;;;5013056;28;20041;-81
2023/04/21 08:12:33;;;;;;;10.43;8.00;;;15.10;51.10;;;;;;5013445;28;20518;-84
2023/04/21 08:15:04;;;;;;;12.27;8.18;;;15.20;51.20;;;;;;4993002;28;20034;-84
2023/04/21 08:17:30;;;;;;;10.25;7.32;;;15.30;51.40;;;;;;5018662;28;20036;-84
2023/04/21 08:19:56;;;;;;;10.00;7.97;;;15.40;51.40;;;;;;5015852;28;20458;-85
2023/04/21 08:22:22;;;;;;;15.07;7.65;;;15.40;51.20;;;;;;5019571;28;20063;-84
2023/04/21 08:24:48;;;;;;;8.32;7.10;;;15.40;51.20;;;;;;5015434;28;20558;-84
2023/04/21 08:27:14;;;;;;;7.05;5.10;;;15.40;51.20;;;;;;5009896;28;20026;-83
2023/04/21 08:29:40;;;;;;;6.80;5.13;;;15.40;51.40;;;;;;5017224;28;20074;-82
2023/04/21 08:32:06;;;;;;;11.32;6.07;;;15.50;51.90;;;;;;5014443;28;20036;-82
2023/04/21 08:34:32;;;;;;;5.72;4.60;;;15.70;52.20;;;;;;5019428;28;20030;-83
2023/04/21 08:36:58;;;;;;;6.22;5.22;;;15.90;52.50;;;;;;5014718;28;20037;-83
2023/04/21 08:39:25;;;;;;;7.40;5.28;;;16.10;52.60;;;;;;5017225;28;20406;-83
2023/04/21 08:41:51;;;;;;;5.68;4.55;;;16.30;52.60;;;;;;5008246;28;20037;-84
2023/04/21 08:44:19;;;;;;;7.15;5.68;;;16.60;52.70;;;;;;5011666;28;20026;-83
2023/04/21 08:46:47;;;;;;;10.70;4.85;;;16.90;52.80;;;;;;5008741;28;20073;-83
2023/04/21 08:49:17;;;;;;;7.00;4.18;;;17.10;52.70;;;;;;5009187;28;20124;-83
2023/04/21 08:51:43;;;;;;;6.53;4.18;;;17.30;52.60;;;;;;5011087;28;20095;-86
2023/04/21 08:54:09;;;;;;;5.80;4.05;;;17.50;52.50;;;;;;5015569;28;20088;-82
2023/04/21 08:56:35;;;;;;;5.43;4.55;;;17.70;52.50;;;;;;5010964;28;20033;-85
2023/04/21 08:59:03;;;;;;;5.93;4.72;;;17.80;52.40;;;;;;5015310;28;20089;-81
2023/04/21 09:01:29;;;;;;;5.78;3.80;;;17.90;52.20;;;;;;5017247;28;20132;-82
2023/04/21 09:04:15;;;;;;;6.63;4.43;;;18.00;52.20;;;;;;5015968;28;20851;-81
2023/04/21 09:06:45;;;;;;;7.05;4.38;;;18.00;52.00;;;;;;5017992;28;20030;-82
2023/04/21 09:09:10;;;;;;;5.55;4.85;;;18.10;52.10;;;;;;5007571;28;20029;-82
2023/04/21 09:11:37;;;;;;;8.30;4.38;;;18.10;52.00;;;;;;5007839;28;20083;-81
2023/04/21 09:14:03;;;;;;;5.38;4.22;;;18.20;52.00;;;;;;5014619;28;20037;-82
2023/04/21 09:16:33;;;;;;;5.22;4.57;;;18.20;51.80;;;;;;4998831;28;20398;-81
2023/04/21 09:19:00;;;;;;;5.28;3.88;;;18.30;51.80;;;;;;5005155;28;20839;-83
2023/04/21 09:21:30;;;;;;;6.03;3.55;;;18.30;51.60;;;;;;5017422;28;20045;-81
2023/04/21 09:23:56;;;;;;;5.55;3.50;;;18.40;51.50;;;;;;5000543;28;20829;-82
2023/04/21 09:26:22;;;;;;;4.72;3.58;;;18.50;51.50;;;;;;5018706;28;20041;-82
2023/04/21 09:28:50;;;;;;;4.63;3.72;;;18.60;51.50;;;;;;5013041;28;20064;-83
2023/04/21 09:31:23;;;;;;;4.18;3.78;;;18.70;51.40;;;;;;5017351;28;20504;-81
2023/04/21 09:33:50;;;;;;;;;;;18.80;51.40;;;;;;5014046;28;20946;-84
2023/04/21 09:36:21;;;;;;;6.68;3.80;;;18.90;51.30;;;;;;5002515;28;20175;-80
2023/04/21 09:38:50;;;;;;;4.45;3.70;;;19.00;51.30;;;;;;5014724;28;20033;-83
2023/04/21 09:41:17;;;;;;;6.90;4.10;;;19.10;51.20;;;;;;5017573;28;20045;-81
2023/04/21 09:43:43;;;;;;;5.05;4.03;;;19.20;51.10;;;;;;5011215;28;20022;-82
2023/04/21 09:46:10;;;;;;;5.93;4.57;;;19.20;50.70;;;;;;5011180;28;20048;-80
2023/04/21 09:48:40;;;;;;;4.40;3.97;;;19.30;50.60;;;;;;4988528;28;20069;-83
2023/04/21 09:51:07;;;;;;;5.10;3.95;;;19.30;50.40;;;;;;5019063;28;20305;-84
2023/04/21 09:53:37;;;;;;;4.75;3.92;;;19.30;50.20;;;;;;5013019;28;20037;-82
2023/04/21 09:56:05;;;;;;;4.95;4.32;;;19.30;50.10;;;;;;5005869;28;20060;-85
2023/04/21 09:58:39;;;;;;;6.53;4.35;;;19.40;50.20;;;;;;5011374;28;20033;-83
2023/04/21 10:01:06;;;;;;;7.28;4.00;;;19.30;49.90;;;;;;5011677;28;20045;-84
2023/04/21 10:03:34;;;;;;;6.95;4.20;;;19.30;50.00;;;;;;5028875;28;20029;-84
2023/04/21 10:06:00;;;;;;;4.13;3.78;;;19.30;50.00;;;;;;5009477;28;20050;-83
2023/04/21 10:08:26;;;;;;;4.25;3.65;;;19.30;50.00;;;;;;5016336;28;20437;-81
2023/04/21 10:10:53;;;;;;;5.55;4.97;;;19.30;49.80;;;;;;5014187;28;20080;-83
2023/04/21 10:13:19;;;;;;;3.83;3.53;;;19.30;50.30;;;;;;5018467;28;20125;-84
2023/04/21 10:15:45;;;;;;;5.45;4.95;;;19.20;49.50;;;;;;5016622;28;20542;-80
2023/04/21 10:18:14;;;;;;;5.57;4.68;;;19.20;49.50;;;;;;5015193;28;20030;-82
2023/04/21 10:21:10;;;;;;;4.28;3.80;;;19.00;49.20;;;;;;5012398;28;20044;-82
2023/04/21 10:23:38;;;;;;;4.82;4.32;;;18.90;49.20;;;;;;5018781;28;20116;-81
2023/04/21 10:26:31;;;;;;;5.68;4.13;;;18.80;49.20;;;;;;5019022;28;20626;-82
2023/04/21 10:29:05;;;;;;;4.70;3.95;;;18.70;49.20;;;;;;5014114;28;20778;-81
2023/04/21 10:31:31;;;;;;;3.75;3.45;;;18.50;49.10;;;;;;5013413;28;20041;-83
2023/04/21 10:34:07;;;;;;;6.35;4.25;;;18.40;49.10;;;;;;5013566;28;20095;-82
2023/04/21 10:36:45;;;;;;;5.10;4.70;;;18.30;48.90;;;;;;5019785;28;20021;-81
2023/04/21 10:39:34;;;;;;;4.90;4.40;;;18.20;48.90;;;;;;4991381;28;20044;-81
2023/04/21 10:42:15;;;;;;;4.03;3.63;;;18.10;48.80;;;;;;5012269;28;20072;-83
2023/04/21 10:44:43;;;;;;;3.80;3.50;;;18.10;48.90;;;;;;5011934;28;20034;-82
2023/04/21 10:47:09;;;;;;;5.40;3.63;;;18.00;48.90;;;;;;5010913;28;20382;-81
2023/04/21 10:49:39;;;;;;;4.05;3.53;;;18.00;49.00;;;;;;5039926;28;20061;-89
2023/04/21 10:52:11;;;;;;;8.55;4.75;;;17.90;48.70;;;;;;5016565;28;20032;-86
2023/04/21 10:54:46;;;;;;;4.75;4.25;;;17.90;48.60;;;;;;5019330;28;20139;-87
2023/04/21 10:57:18;;;;;;;5.85;4.75;;;17.80;48.40;;;;;;5015332;28;20124;-89
2023/04/21 10:59:45;;;;;;;5.50;5.00;;;17.80;48.50;;;;;;5010127;28;20048;-88
2023/04/21 11:02:13;;;;;;;5.43;4.93;;;17.60;48.20;;;;;;5018807;28;20435;-91
2023/04/21 11:04:43;;;;;;;5.72;5.18;;;17.60;48.20;;;;;;5011681;28;20499;-84
2023/04/21 11:07:11;;;;;;;5.55;4.95;;;17.40;48.00;;;;;;5020974;28;20037;-85
2023/04/21 11:09:39;;;;;;;5.88;5.22;;;17.40;48.00;;;;;;5002019;28;20389;-84
2023/04/21 11:12:08;;;;;;;5.45;4.95;;;17.30;47.90;;;;;;5019996;28;20624;-83
2023/04/21 11:14:35;;;;;;;7.13;5.03;;;17.30;47.90;;;;;;5003457;28;20564;-85
2023/04/21 11:17:02;;;;;;;5.53;5.03;;;17.20;48.30;;;;;;5002769;28;20045;-87
2023/04/21 11:19:30;;;;;;;5.45;5.05;;;17.20;47.80;;;;;;5015422;28;20050;-85
2023/04/21 11:21:57;;;;;;;5.82;5.30;;;17.20;47.80;;;;;;5010417;28;20125;-84
2023/04/21 11:24:23;;;;;;;4.78;4.38;;;17.20;47.90;;;;;;5019746;28;20112;-88
2023/04/21 11:26:49;;;;;;;6.57;6.05;;;17.20;47.90;;;;;;4993400;28;20044;-85
2023/04/21 11:29:16;;;;;;;5.63;5.07;;;17.30;47.90;;;;;;4993638;28;20030;-85
2023/04/21 11:31:44;;;;;;;4.97;4.57;;;17.40;47.90;;;;;;5011861;28;20018;-83
2023/04/21 11:34:10;;;;;;;6.72;4.40;;;17.50;47.80;;;;;;5014501;28;20033;-83
2023/04/21 11:36:39;;;;;;;4.80;4.40;;;17.60;47.80;;;;;;5011744;28;20025;-83
2023/04/21 11:39:10;;;;;;;5.63;4.85;;;17.80;47.80;;;;;;5033708;28;20101;-84
2023/04/21 11:41:44;;;;;;;4.45;4.10;;;17.90;47.80;;;;;;5038587;28;20300;-83
2023/04/21 11:44:11;;;;;;;3.88;3.58;;;18.00;47.70;;;;;;5047489;28;20046;-83
2023/04/21 11:46:43;;;;;;;3.95;3.65;;;18.10;47.70;;;;;;5040587;28;20026;-82
2023/04/21 11:49:16;;;;;;;4.43;3.13;;;18.20;47.70;;;;;;5051229;28;20026;-81
2023/04/21 11:51:43;;;;;;;5.32;3.53;;;18.20;47.60;;;;;;5042567;28;20024;-86
2023/04/21 11:54:13;;;;;;;4.75;3.10;;;18.30;47.80;;;;;;5034084;28;20046;-84
2023/04/21 11:56:40;;;;;;;5.28;3.60;;;18.30;47.90;;;;;;5022967;28;20030;-80
2023/04/21 11:59:15;;;;;;;3.80;3.25;;;18.40;48.10;;;;;;5017906;28;20041;-81
2023/04/21 12:01:50;;;;;;;3.60;3.13;;;18.40;48.30;;;;;;5018579;28;20061;-80
2023/04/21 12:04:18;;;;;;;3.97;3.10;;;18.40;48.50;;;;;;5015002;28;20041;-81
2023/04/21 12:06:45;;;;;;;3.08;2.88;;;18.40;48.60;;;;;;5010493;28;20032;-82
2023/04/21 12:09:19;;;;;;;3.20;2.80;;;18.40;48.70;;;;;;5013951;28;20121;-81
2023/04/21 12:11:51;;;;;;;2.47;2.28;;;18.40;48.70;;;;;;5003783;28;20025;-81
2023/04/21 12:14:22;;;;;;;3.58;2.83;;;18.40;48.70;;;;;;5014129;28;20084;-79
2023/04/21 12:16:50;;;;;;;3.25;2.95;;;18.40;48.60;;;;;;5010366;28;20033;-79
2023/04/21 12:19:39;;;;;;;3.20;2.83;;;18.50;48.80;;;;;;5014239;28;20033;-81
2023/04/21 12:22:14;;;;;;;3.33;2.30;;;18.50;48.70;;;;;;5013933;28;20059;-80
2023/04/21 12:24:41;;;;;;;5.43;2.50;;;18.50;48.70;;;;;;5020484;28;20464;-80
2023/04/21 12:27:07;;;;;;;2.92;2.72;;;18.60;48.80;;;;;;5004190;28;20124;-81
2023/04/21 12:29:34;;;;;;;2.50;2.30;;;18.60;48.70;;;;;;5020898;28;20029;-81
2023/04/21 12:32:00;;;;;;;3.60;2.55;;;18.60;48.60;;;;;;5012749;28;20032;-81
2023/04/21 12:34:26;;;;;;;3.17;2.03;;;18.60;48.60;;;;;;5003908;28;20187;-82
2023/04/21 12:36:52;;;;;;;2.80;2.33;;;18.50;48.40;;;;;;5019130;28;20693;-81
2023/04/21 12:39:18;;;;;;;2.15;1.95;;;18.50;48.40;;;;;;5017905;28;20547;-81
2023/04/21 12:41:47;;;;;;;2.33;2.13;;;18.40;48.30;;;;;;5011683;28;20121;-82
2023/04/21 12:44:14;;;;;;;2.45;2.25;;;18.40;48.30;;;;;;5015640;28;20100;-84
2023/04/21 12:46:40;;;;;;;3.60;2.53;;;18.40;48.40;;;;;;5013678;28;20099;-81